Time;durP1;ratioP1;P1;durP2;ratioP2;P2;SDS_P1;SDS_P2;PMS_P1;PMS_P2;Temp;Humidity;BMP_temperature;BMP_pressure;BME280_temperature;BME280_humidity;BME280_pressure;Samples;Min_cycle;Max_cycle;Signal;HPM_P1;HPM_P2
2023/11/10 00:00:54;;;;;;;17.17;6.73;;;7.70;99.90;;;;;;5015140;28;20050;-74
2023/11/10 00:03:23;;;;;;;13.20;6.25;;;7.60;99.90;;;;;;5001833;28;20067;-74
2023/11/10 00:05:52;;;;;;;11.93;6.50;;;7.70;99.90;;;;;;5008872;28;20049;-74
2023/11/10 00:08:21;;;;;;;12.65;6.38;;;7.60;99.90;;;;;;5005559;28;20073;-75
2023/11/10 00:10:51;;;;;;;12.48;5.80;;;7.60;99.90;;;;;;5008110;28;20180;-75
2023/11/10 00:13:20;;;;;;;12.98;6.10;;;7.60;99.90;;;;;;4997712;28;20057;-74
2023/11/10 00:15:48;;;;;;;13.38;5.55;;;7.60;99.90;;;;;;5016161;28;20073;-74
2023/11/10 00:18:19;;;;;;;15.10;6.70;;;7.60;99.90;;;;;;5002742;28;20151;-74
2023/11/10 00:20:48;;;;;;;14.98;5.95;;;7.60;99.90;;;;;;5007806;28;20627;-75
2023/11/10 00:23:18;;;;;;;12.55;5.88;;;7.60;99.90;;;;;;5031052;28;20053;-75
2023/11/10 00:25:46;;;;;;;15.70;6.45;;;7.60;99.90;;;;;;4999631;28;20084;-75
2023/11/10 00:28:15;;;;;;;14.88;6.35;;;7.60;99.90;;;;;;4999980;28;20064;-75
2023/11/10 00:30:44;;;;;;;11.93;6.18;;;7.60;99.90;;;;;;5004427;28;20464;-73
2023/11/10 00:33:12;;;;;;;15.05;6.75;;;7.60;99.90;;;;;;5000968;28;20057;-75
2023/11/10 00:35:44;;;;;;;12.43;5.20;;;7.50;99.90;;;;;;5031464;28;20037;-74
2023/11/10 00:38:15;;;;;;;17.45;6.47;;;7.60;99.90;;;;;;5026120;28;20489;-74
2023/11/10 00:40:43;;;;;;;11.77;6.13;;;7.60;99.90;;;;;;5007945;28;20136;-74
2023/11/10 00:43:11;;;;;;;12.77;6.18;;;7.60;99.90;;;;;;4999733;28;20719;-75
2023/11/10 00:45:40;;;;;;;14.13;6.53;;;7.60;99.90;;;;;;5029215;28;20999;-75
2023/11/10 00:48:08;;;;;;;13.23;6.40;;;7.60;99.90;;;;;;4999442;28;20124;-75
2023/11/10 00:50:38;;;;;;;11.73;5.28;;;7.60;99.90;;;;;;5005935;28;20715;-74
2023/11/10 00:53:08;;;;;;;15.45;7.30;;;7.60;99.90;;;;;;5010121;28;20057;-74
2023/11/10 00:55:36;;;;;;;11.80;5.75;;;7.60;99.90;;;;;;5013467;28;20067;-73
2023/11/10 00:58:05;;;;;;;12.77;6.50;;;7.60;99.90;;;;;;5026837;28;20115;-74
2023/11/10 01:00:35;;;;;;;9.40;5.13;;;7.50;99.90;;;;;;5004578;28;20812;-75
2023/11/10 01:03:04;;;;;;;12.95;6.25;;;7.50;99.90;;;;;;5004477;28;20057;-74
2023/11/10 01:05:33;;;;;;;10.68;6.10;;;7.50;99.90;;;;;;5017587;28;22582;-75
2023/11/10 01:08:02;;;;;;;11.45;5.80;;;7.50;99.90;;;;;;5017656;28;20163;-76
2023/11/10 01:10:32;;;;;;;14.85;7.07;;;7.50;99.90;;;;;;5008079;28;20041;-76
2023/11/10 01:13:01;;;;;;;14.35;6.63;;;7.90;99.90;;;;;;5019599;28;20049;-76
2023/11/10 01:15:30;;;;;;;13.05;5.93;;;7.50;99.90;;;;;;5003180;28;20049;-76
2023/11/10 01:17:59;;;;;;;12.77;6.22;;;7.50;99.90;;;;;;5030264;28;20171;-76
2023/11/10 01:20:27;;;;;;;13.50;6.75;;;7.60;99.90;;;;;;5013039;28;20105;-76
2023/11/10 01:22:57;;;;;;;12.93;6.65;;;7.40;99.90;;;;;;5002323;28;20121;-76
2023/11/10 01:25:25;;;;;;;17.60;6.43;;;7.50;99.90;;;;;;5018780;28;20034;-76
2023/11/10 01:27:55;;;;;;;13.57;6.30;;;7.50;99.90;;;;;;5010664;28;20054;-76
2023/11/10 01:30:24;;;;;;;14.60;6.93;;;7.20;99.90;;;;;;5002304;28;20046;-76
2023/11/10 01:32:56;;;;;;;16.27;6.78;;;7.40;99.90;;;;;;5008289;28;20073;-76
2023/11/10 01:35:25;;;;;;;14.93;7.05;;;7.40;99.90;;;;;;5009770;28;20065;-76
2023/11/10 01:37:54;;;;;;;16.15;6.03;;;7.40;99.90;;;;;;5009465;28;20059;-76
2023/11/10 01:40:23;;;;;;;13.68;6.65;;;8.70;99.90;;;;;;5022716;28;20064;-76
2023/11/10 01:42:52;;;;;;;18.00;7.13;;;7.60;99.90;;;;;;5020787;28;20084;-76
2023/11/10 01:45:22;;;;;;;16.65;7.30;;;7.30;99.90;;;;;;5029813;28;21944;-76
2023/11/10 01:47:51;;;;;;;15.18;7.40;;;7.10;99.90;;;;;;5019407;28;20046;-76
2023/11/10 01:50:20;;;;;;;16.50;7.47;;;7.30;99.90;;;;;;5010138;28;20076;-76
2023/11/10 01:52:48;;;;;;;17.00;8.18;;;7.60;99.90;;;;;;5026612;28;20042;-76
2023/11/10 01:55:19;;;;;;;16.45;7.75;;;7.40;99.90;;;;;;5012894;28;22280;-76
2023/11/10 01:57:47;;;;;;;15.27;7.22;;;7.30;99.90;;;;;;5010920;28;20050;-76
2023/11/10 02:00:19;;;;;;;15.52;7.53;;;7.20;99.90;;;;;;5014522;28;20042;-76
2023/11/10 02:02:49;;;;;;;14.05;6.65;;;7.40;99.90;;;;;;5036850;28;20144;-76
2023/11/10 02:05:18;;;;;;;14.38;6.63;;;7.20;99.90;;;;;;5010160;28;20032;-76
2023/11/10 02:07:47;;;;;;;16.75;8.02;;;7.20;99.90;;;;;;5012770;28;21899;-76
2023/11/10 02:10:16;;;;;;;15.98;7.35;;;8.20;99.90;;;;;;5029455;28;20041;-76
2023/11/10 02:12:51;;;;;;;14.77;6.75;;;7.40;99.90;;;;;;5021653;28;22166;-76
2023/11/10 02:15:20;;;;;;;18.85;7.97;;;7.50;99.90;;;;;;5031926;28;20045;-76
2023/11/10 02:17:51;;;;;;;13.95;6.65;;;6.90;99.90;;;;;;5022311;28;20060;-75
2023/11/10 02:20:20;;;;;;;12.57;6.53;;;7.20;99.90;;;;;;5017515;28;20431;-74
2023/11/10 02:22:49;;;;;;;14.90;7.13;;;7.20;99.90;;;;;;5022715;28;20057;-74
2023/11/10 02:25:20;;;;;;;13.07;6.38;;;7.20;99.90;;;;;;5016721;28;20116;-74
2023/11/10 02:27:49;;;;;;;13.93;5.72;;;7.10;99.90;;;;;;5016936;28;20064;-75
2023/11/10 02:30:18;;;;;;;15.25;6.53;;;7.10;99.90;;;;;;4998558;28;20528;-75
2023/11/10 02:32:47;;;;;;;12.60;6.68;;;7.10;99.90;;;;;;5004220;28;20048;-74
2023/11/10 02:35:16;;;;;;;13.68;6.82;;;7.10;99.90;;;;;;4998914;28;20057;-75
2023/11/10 02:37:44;;;;;;;15.68;7.07;;;7.10;99.90;;;;;;5003173;28;20065;-75
2023/11/10 02:40:13;;;;;;;17.85;7.40;;;7.10;99.90;;;;;;5006566;28;20058;-75
2023/11/10 02:42:43;;;;;;;16.45;7.60;;;7.10;99.90;;;;;;5015333;28;20528;-74
2023/11/10 02:45:13;;;;;;;15.00;6.85;;;7.10;99.90;;;;;;5015974;28;20100;-74
2023/11/10 02:47:42;;;;;;;17.27;7.28;;;7.10;99.90;;;;;;5021241;28;20065;-75
2023/11/10 02:50:11;;;;;;;13.45;6.72;;;7.00;99.90;;;;;;5010728;28;20072;-75
2023/11/10 02:52:39;;;;;;;16.05;7.53;;;7.00;99.90;;;;;;5033036;28;20052;-74
2023/11/10 02:55:09;;;;;;;15.10;6.50;;;7.00;99.90;;;;;;5011361;28;20045;-75
2023/11/10 02:57:37;;;;;;;15.25;6.78;;;7.00;99.90;;;;;;5007776;28;20080;-74
2023/11/10 03:00:09;;;;;;;14.38;7.53;;;7.00;99.90;;;;;;5004993;28;20038;-75
2023/11/10 03:02:38;;;;;;;13.68;7.00;;;7.00;99.90;;;;;;4998986;28;20061;-74
2023/11/10 03:05:07;;;;;;;17.05;8.07;;;6.90;99.90;;;;;;5019390;28;20056;-75
2023/11/10 03:07:36;;;;;;;19.95;9.02;;;6.80;99.90;;;;;;4999343;28;20045;-74
2023/11/10 03:10:08;;;;;;;19.58;8.82;;;6.80;99.90;;;;;;5016930;28;20267;-74
2023/11/10 03:12:37;;;;;;;20.55;9.15;;;6.90;99.90;;;;;;5006119;28;20139;-75
2023/11/10 03:15:08;;;;;;;20.25;8.55;;;6.90;99.90;;;;;;5005298;28;20914;-75
2023/11/10 03:17:36;;;;;;;21.13;9.60;;;6.90;99.90;;;;;;5009397;28;20053;-73
2023/11/10 03:20:06;;;;;;;19.75;9.40;;;6.90;99.90;;;;;;4998805;28;20439;-75
2023/11/10 03:22:35;;;;;;;24.60;11.15;;;6.80;99.90;;;;;;5004404;28;20099;-74
2023/11/10 03:25:03;;;;;;;18.45;9.07;;;6.70;99.90;;;;;;5020039;28;20183;-74
2023/11/10 03:27:32;;;;;;;17.42;8.63;;;6.80;99.90;;;;;;5016429;28;20045;-77
2023/11/10 03:30:00;;;;;;;18.63;7.93;;;6.80;99.90;;;;;;5013699;28;20057;-78
2023/11/10 03:32:32;;;;;;;16.23;7.57;;;6.80;99.90;;;;;;5000509;28;20060;-77
2023/11/10 03:35:00;;;;;;;18.27;8.88;;;6.70;99.90;;;;;;5006837;28;20064;-77
2023/11/10 03:37:29;;;;;;;19.23;8.70;;;6.80;99.90;;;;;;5011993;28;20154;-77
2023/11/10 03:39:57;;;;;;;21.88;9.45;;;6.70;99.90;;;;;;5015274;28;20064;-77
2023/11/10 03:42:26;;;;;;;19.35;8.95;;;6.80;99.90;;;;;;5015236;28;22277;-77
2023/11/10 03:44:54;;;;;;;19.77;8.25;;;6.70;99.90;;;;;;5009335;28;20053;-77
2023/11/10 03:47:23;;;;;;;18.63;7.95;;;6.70;99.90;;;;;;4996918;28;20126;-77
2023/11/10 03:49:53;;;;;;;17.33;8.07;;;6.70;99.90;;;;;;5021527;28;20049;-77
2023/11/10 03:52:21;;;;;;;16.75;7.55;;;6.70;99.90;;;;;;5007396;28;20056;-77
2023/11/10 03:54:49;;;;;;;18.27;8.70;;;6.70;99.90;;;;;;5001978;28;20058;-77
2023/11/10 03:57:18;;;;;;;17.40;8.30;;;6.70;99.90;;;;;;4998931;28;20045;-77
2023/11/10 03:59:46;;;;;;;17.90;7.78;;;6.60;99.90;;;;;;5009471;28;21979;-77
2023/11/10 04:02:14;;;;;;;17.60;8.15;;;6.60;99.90;;;;;;4999503;28;20432;-77
2023/11/10 04:04:43;;;;;;;15.60;7.15;;;6.60;99.90;;;;;;5013024;28;20053;-77
2023/11/10 04:07:14;;;;;;;17.83;8.15;;;6.50;99.90;;;;;;4997627;28;20056;-77
2023/11/10 04:09:42;;;;;;;14.90;8.15;;;6.60;99.90;;;;;;5011321;28;20053;-77
2023/11/10 04:12:11;;;;;;;20.15;8.55;;;6.60;99.90;;;;;;5014454;28;20057;-77
2023/11/10 04:14:40;;;;;;;14.82;7.82;;;6.50;99.90;;;;;;5026199;28;22609;-77
2023/11/10 04:17:08;;;;;;;16.63;7.85;;;6.50;99.90;;;;;;5014593;28;20049;-77
2023/11/10 04:19:37;;;;;;;17.33;7.82;;;6.50;99.90;;;;;;5001043;28;20818;-77
2023/11/10 04:22:06;;;;;;;19.95;8.63;;;6.50;99.90;;;;;;4997066;28;20041;-77
2023/11/10 04:24:36;;;;;;;20.08;9.32;;;6.50;99.90;;;;;;5005735;28;20042;-77
2023/11/10 04:27:06;;;;;;;19.17;8.27;;;6.50;99.90;;;;;;4996383;28;20053;-77
2023/11/10 04:29:36;;;;;;;21.52;8.90;;;6.50;99.90;;;;;;5000627;28;20058;-77
2023/11/10 04:32:05;;;;;;;21.38;9.38;;;6.50;99.90;;;;;;4995517;28;20053;-77
2023/11/10 04:34:34;;;;;;;19.40;8.90;;;6.40;99.90;;;;;;5002301;28;20188;-77
2023/11/10 04:37:05;;;;;;;18.67;8.93;;;6.40;99.90;;;;;;4996450;28;20049;-77
2023/11/10 04:39:37;;;;;;;18.05;8.82;;;6.40;99.90;;;;;;5025953;28;20125;-78
2023/11/10 04:42:06;;;;;;;18.58;8.52;;;6.50;99.90;;;;;;5004398;28;20060;-77
2023/11/10 04:44:35;;;;;;;19.60;9.18;;;6.50;99.90;;;;;;5014768;28;20061;-77
2023/11/10 04:47:04;;;;;;;19.23;8.98;;;6.50;99.90;;;;;;5012182;28;20193;-77
2023/11/10 04:49:33;;;;;;;19.55;9.07;;;6.50;99.90;;;;;;5007878;28;20057;-77
2023/11/10 04:52:01;;;;;;;24.83;9.95;;;6.50;99.90;;;;;;5002241;28;20057;-76
2023/11/10 04:54:29;;;;;;;21.17;9.40;;;6.50;99.90;;;;;;5020597;28;22054;-77
2023/11/10 04:56:59;;;;;;;19.80;9.18;;;6.50;99.90;;;;;;4997458;28;20076;-77
2023/11/10 04:59:28;;;;;;;20.95;9.40;;;6.50;99.90;;;;;;5014023;28;20047;-77
2023/11/10 05:01:56;;;;;;;19.92;8.77;;;6.50;99.90;;;;;;5003222;28;20794;-78
2023/11/10 05:04:25;;;;;;;23.38;9.80;;;5.80;99.90;;;;;;5015913;28;20041;-77
2023/11/10 05:06:55;;;;;;;27.67;10.18;;;6.40;99.90;;;;;;4999822;28;20045;-78
2023/11/10 05:09:24;;;;;;;22.70;10.15;;;6.50;99.90;;;;;;5029051;28;20061;-77
2023/11/10 05:11:53;;;;;;;26.83;11.20;;;6.50;99.90;;;;;;4991126;28;20061;-77
2023/11/10 05:14:23;;;;;;;23.38;10.15;;;6.50;99.90;;;;;;4996428;28;20141;-77
2023/11/10 05:16:51;;;;;;;28.75;10.35;;;6.50;99.90;;;;;;5014476;28;20058;-77
2023/11/10 05:19:20;;;;;;;22.23;10.13;;;6.50;99.90;;;;;;5012820;28;20135;-78
2023/11/10 05:21:48;;;;;;;21.33;9.00;;;6.50;99.90;;;;;;5010398;28;20062;-77
2023/11/10 05:24:17;;;;;;;21.45;9.50;;;6.50;99.90;;;;;;5020817;28;20047;-78
2023/11/10 05:26:45;;;;;;;21.60;9.48;;;6.50;99.90;;;;;;4997666;28;20073;-78
2023/11/10 05:29:14;;;;;;;24.92;10.45;;;6.50;99.90;;;;;;5004827;28;20053;-77
2023/11/10 05:31:45;;;;;;;23.15;10.48;;;6.50;99.90;;;;;;5011203;28;20774;-77
2023/11/10 05:34:16;;;;;;;20.07;8.90;;;6.50;99.90;;;;;;5000155;28;20065;-77
2023/11/10 05:36:44;;;;;;;20.38;9.77;;;6.50;99.90;;;;;;5002566;28;20055;-77
2023/11/10 05:39:13;;;;;;;24.85;11.05;;;6.50;99.90;;;;;;5012872;28;20053;-78
2023/11/10 05:41:44;;;;;;;21.42;9.68;;;6.50;99.90;;;;;;4999607;28;21290;-78
2023/11/10 05:44:12;;;;;;;23.10;10.15;;;6.50;99.90;;;;;;4998181;28;20049;-77
2023/11/10 05:46:41;;;;;;;25.00;11.45;;;6.50;99.90;;;;;;5020155;28;20646;-78
2023/11/10 05:49:11;;;;;;;22.13;10.90;;;6.50;99.90;;;;;;5012837;28;20038;-76
2023/11/10 05:51:39;;;;;;;25.35;11.02;;;6.50;99.90;;;;;;5023667;28;20033;-76
2023/11/10 05:54:08;;;;;;;19.98;10.27;;;6.50;99.90;;;;;;5023376;28;20045;-76
2023/11/10 05:56:37;;;;;;;28.10;11.40;;;6.70;99.90;;;;;;5022577;28;24415;-76
2023/11/10 05:59:05;;;;;;;28.60;13.40;;;6.70;99.90;;;;;;5012147;28;20044;-76
2023/11/10 06:01:34;;;;;;;31.23;13.10;;;6.70;99.90;;;;;;5008103;28;20050;-76
2023/11/10 06:04:04;;;;;;;30.08;13.45;;;6.80;99.90;;;;;;5009445;28;22061;-76
2023/11/10 06:06:36;;;;;;;26.88;12.35;;;6.60;99.90;;;;;;5007783;28;20109;-77
2023/11/10 06:09:09;;;;;;;27.77;12.48;;;6.60;99.90;;;;;;5025550;28;20045;-77
2023/11/10 06:11:38;;;;;;;25.08;11.25;;;6.80;99.90;;;;;;5014531;28;20041;-78
2023/11/10 06:14:22;;;;;;;26.80;11.75;;;6.70;99.90;;;;;;5002304;28;20101;-77
2023/11/10 06:17:04;;;;;;;25.92;12.15;;;7.00;99.90;;;;;;5030109;28;20072;-78
2023/11/10 06:19:33;;;;;;;25.13;11.52;;;6.80;99.90;;;;;;5021751;28;20029;-78
2023/11/10 06:22:04;;;;;;;23.35;10.85;;;6.70;99.90;;;;;;5005385;28;20052;-78
2023/11/10 06:24:34;;;;;;;26.75;12.73;;;7.10;99.90;;;;;;5009068;28;20034;-77
2023/11/10 06:30:02;;;;;;;28.60;12.20;;;6.70;99.90;;;;;;4972730;23;20051;-78
2023/11/10 06:32:32;;;;;;;28.27;13.40;;;7.00;99.90;;;;;;4937688;28;20036;-77
2023/11/10 06:35:01;;;;;;;27.75;12.13;;;7.10;99.90;;;;;;4918469;29;20710;-78
2023/11/10 06:37:31;;;;;;;29.60;12.50;;;7.50;99.90;;;;;;4922499;29;20057;-78
2023/11/10 06:40:00;;;;;;;28.15;11.18;;;7.10;99.90;;;;;;4945343;28;20067;-78
2023/11/10 06:42:33;;;;;;;34.65;12.95;;;7.50;99.90;;;;;;4939272;28;20023;-78
2023/11/10 06:45:05;;;;;;;;;;;8.20;99.90;;;;;;4924878;28;20066;-78
2023/11/10 06:47:35;;;;;;;38.00;14.27;;;7.70;99.90;;;;;;4936577;28;19918;-78
2023/11/10 06:50:07;;;;;;;32.45;13.70;;;6.80;99.90;;;;;;4922468;28;20066;-78
2023/11/10 06:52:37;;;;;;;27.67;11.27;;;6.90;99.90;;;;;;4937668;28;22153;-78
2023/11/10 06:55:13;;;;;;;31.67;11.77;;;7.00;99.90;;;;;;4921232;28;20059;-78
2023/11/10 06:57:42;;;;;;;21.20;10.20;;;7.20;99.90;;;;;;4917081;28;20035;-77
2023/11/10 07:00:11;;;;;;;22.75;10.00;;;7.10;99.90;;;;;;4914053;28;20059;-78
2023/11/10 07:02:41;;;;;;;22.02;10.43;;;8.10;99.90;;;;;;4916121;29;20058;-78
2023/11/10 07:05:10;;;;;;;24.48;10.38;;;7.00;99.90;;;;;;4910770;28;20042;-78
2023/11/10 07:07:40;;;;;;;28.27;10.80;;;7.10;99.90;;;;;;4917180;28;21979;-78
2023/11/10 07:10:09;;;;;;;20.35;9.70;;;7.20;99.90;;;;;;4933809;28;20134;-78
2023/11/10 07:12:38;;;;;;;26.20;10.93;;;7.10;99.90;;;;;;4916037;28;22921;-79
2023/11/10 07:15:09;;;;;;;21.85;9.95;;;7.40;99.90;;;;;;4935791;28;20170;-78
2023/11/10 07:17:38;;;;;;;22.17;8.30;;;6.80;99.90;;;;;;4919878;29;20051;-78
2023/11/10 07:20:10;;;;;;;17.50;8.38;;;7.30;99.90;;;;;;4929826;28;20050;-78
2023/11/10 07:22:43;;;;;;;20.27;8.93;;;7.30;99.90;;;;;;4930527;28;20039;-78
2023/11/10 07:25:13;;;;;;;17.40;8.02;;;7.70;99.90;;;;;;4912056;28;20051;-77
2023/11/10 07:27:41;;;;;;;17.60;7.80;;;8.90;99.90;;;;;;4931374;28;20624;-78
2023/11/10 07:30:10;;;;;;;19.15;8.20;;;7.40;99.90;;;;;;4921468;29;20059;-79
2023/11/10 07:32:39;;;;;;;18.70;7.55;;;7.20;99.90;;;;;;4914034;28;20035;-78
2023/11/10 07:35:08;;;;;;;17.92;7.57;;;7.40;99.90;;;;;;4917380;28;20201;-78
2023/11/10 07:37:36;;;;;;;15.88;6.95;;;6.80;99.90;;;;;;4913387;29;20048;-78
2023/11/10 07:40:08;;;;;;;14.50;7.03;;;7.40;99.90;;;;;;4925676;29;20048;-78
2023/11/10 07:42:37;;;;;;;15.88;7.78;;;7.20;99.90;;;;;;4925927;28;20055;-78
2023/11/10 07:45:07;;;;;;;15.25;6.70;;;7.30;99.90;;;;;;4937575;29;20055;-78
2023/11/10 07:47:36;;;;;;;19.63;8.35;;;8.80;99.90;;;;;;4926905;29;20067;-78
2023/11/10 07:50:06;;;;;;;14.20;6.80;;;7.40;99.90;;;;;;4931935;28;20051;-79
2023/11/10 07:52:34;;;;;;;17.92;7.20;;;7.40;99.90;;;;;;4917925;28;20043;-78
2023/11/10 07:55:04;;;;;;;17.70;8.02;;;7.40;99.90;;;;;;4913254;29;20080;-78
2023/11/10 07:57:34;;;;;;;15.35;7.35;;;7.50;99.90;;;;;;4913079;29;20043;-78
2023/11/10 08:00:06;;;;;;;16.17;7.35;;;7.50;99.90;;;;;;4927025;29;20075;-78
2023/11/10 08:02:41;;;;;;;15.38;7.03;;;7.50;99.90;;;;;;4936431;28;20059;-78
2023/11/10 08:05:11;;;;;;;14.02;6.50;;;7.80;99.90;;;;;;4925539;29;20042;-78
2023/11/10 08:07:39;;;;;;;17.83;7.70;;;7.70;99.90;;;;;;4927983;28;21958;-79
2023/11/10 08:10:10;;;;;;;19.77;8.27;;;7.40;99.90;;;;;;4910006;29;20040;-79
2023/11/10 08:12:41;;;;;;;18.20;9.32;;;7.70;99.90;;;;;;4919983;28;20051;-79
2023/11/10 08:15:10;;;;;;;17.48;7.88;;;7.60;99.90;;;;;;4924249;29;20054;-78
2023/11/10 08:17:39;;;;;;;17.75;8.38;;;8.10;99.90;;;;;;4918105;28;20047;-80
2023/11/10 08:20:10;;;;;;;17.88;7.97;;;7.90;99.90;;;;;;4934753;28;20056;-79
2023/11/10 08:22:39;;;;;;;18.02;7.93;;;8.00;99.90;;;;;;4931674;28;20315;-79
2023/11/10 08:25:11;;;;;;;22.40;7.90;;;7.70;99.90;;;;;;4913207;29;20039;-79
2023/11/10 08:27:42;;;;;;;21.48;8.57;;;8.20;99.90;;;;;;4924767;28;20066;-79
2023/11/10 08:30:13;;;;;;;18.73;8.13;;;7.80;99.90;;;;;;4935235;28;20055;-80
2023/11/10 08:32:42;;;;;;;18.85;8.45;;;8.30;99.90;;;;;;4946693;28;20059;-80
2023/11/10 08:35:16;;;;;;;20.05;8.13;;;8.30;99.90;;;;;;4948206;28;20047;-79
2023/11/10 08:37:45;;;;;;;13.77;7.15;;;8.10;99.90;;;;;;4933689;28;20110;-79
2023/11/10 08:40:14;;;;;;;19.00;8.60;;;8.40;99.90;;;;;;4930944;28;20052;-80
2023/11/10 08:42:44;;;;;;;14.82;7.22;;;8.20;99.90;;;;;;4924706;29;20050;-79
2023/11/10 08:45:14;;;;;;;14.65;6.45;;;9.20;99.90;;;;;;4932406;28;20031;-79
2023/11/10 08:47:47;;;;;;;14.40;7.03;;;9.50;99.90;;;;;;4915343;28;20046;-79
2023/11/10 08:50:16;;;;;;;16.25;7.95;;;7.00;99.90;;;;;;4945302;28;20035;-80
2023/11/10 08:52:47;;;;;;;17.40;8.20;;;8.40;99.90;;;;;;4910115;29;20070;-79
2023/11/10 08:55:20;;;;;;;16.20;7.47;;;8.50;99.90;;;;;;4910452;28;20051;-78
2023/11/10 08:57:51;;;;;;;18.02;7.20;;;8.50;99.90;;;;;;4920269;28;20051;-80
2023/11/10 09:00:24;;;;;;;18.10;8.27;;;8.50;99.90;;;;;;4919012;29;20062;-80
2023/11/10 09:02:55;;;;;;;19.08;8.20;;;8.70;99.90;;;;;;4934852;28;20075;-79
2023/11/10 09:05:25;;;;;;;18.08;8.07;;;8.80;99.90;;;;;;4919083;28;21818;-80
2023/11/10 09:07:55;;;;;;;16.15;8.20;;;8.70;99.90;;;;;;4921129;28;20610;-80
2023/11/10 09:10:24;;;;;;;16.05;7.30;;;8.70;99.90;;;;;;4934498;29;20031;-79
2023/11/10 09:12:54;;;;;;;15.23;6.38;;;9.00;99.90;;;;;;4929763;28;20891;-79
2023/11/10 09:15:24;;;;;;;11.20;5.53;;;8.80;99.90;;;;;;4930247;28;20062;-79
2023/11/10 09:17:53;;;;;;;15.55;5.95;;;8.80;99.90;;;;;;4933269;28;20067;-79
2023/11/10 09:20:23;;;;;;;13.68;6.07;;;10.10;99.90;;;;;;4917390;28;20055;-79
2023/11/10 09:22:52;;;;;;;11.57;5.47;;;8.70;99.90;;;;;;4913827;29;20058;-79
2023/11/10 09:25:21;;;;;;;13.52;5.57;;;10.00;99.90;;;;;;4927021;28;20051;-78
2023/11/10 09:27:51;;;;;;;12.93;5.78;;;9.20;99.90;;;;;;4912264;29;20545;-75
2023/11/10 09:30:24;;;;;;;13.68;5.65;;;9.10;99.90;;;;;;4924158;28;20091;-75
2023/11/10 09:32:53;;;;;;;9.25;4.88;;;9.10;99.90;;;;;;4949800;29;20490;-75
2023/11/10 09:35:28;;;;;;;13.48;5.15;;;9.20;99.90;;;;;;4926079;29;20051;-75
2023/11/10 09:38:01;;;;;;;13.13;5.30;;;9.20;99.90;;;;;;4932430;29;20418;-76
2023/11/10 09:40:29;;;;;;;10.43;4.72;;;9.30;99.90;;;;;;4932738;29;20055;-76
2023/11/10 09:43:01;;;;;;;12.50;5.90;;;9.30;99.90;;;;;;4936515;29;20051;-75
2023/11/10 09:45:35;;;;;;;12.88;5.65;;;9.30;99.90;;;;;;4932969;29;20098;-76
2023/11/10 09:48:09;;;;;;;10.80;5.47;;;9.30;99.90;;;;;;4930654;28;20054;-76
2023/11/10 09:50:43;;;;;;;12.00;5.50;;;9.30;99.90;;;;;;4930041;28;20051;-76
2023/11/10 09:53:14;;;;;;;13.38;5.03;;;9.40;99.90;;;;;;4944688;28;20106;-76
2023/11/10 09:55:47;;;;;;;14.45;6.07;;;9.40;99.90;;;;;;4917602;29;20507;-75
2023/11/10 09:58:18;;;;;;;10.50;5.05;;;9.40;99.90;;;;;;4926094;29;20051;-76
2023/11/10 10:00:51;;;;;;;11.55;6.07;;;9.40;99.90;;;;;;4953625;29;20043;-76
2023/11/10 10:03:23;;;;;;;15.02;6.45;;;9.40;99.90;;;;;;4942729;29;20043;-75
2023/11/10 10:05:52;;;;;;;14.45;6.60;;;9.40;99.90;;;;;;4931544;29;20455;-75
2023/11/10 10:08:21;;;;;;;12.63;6.20;;;9.50;99.90;;;;;;4939776;28;20059;-76
2023/11/10 10:10:53;;;;;;;15.10;6.75;;;9.50;99.90;;;;;;4937763;29;20532;-75
2023/11/10 10:13:22;;;;;;;12.52;5.78;;;9.60;99.90;;;;;;4916888;29;20066;-76
2023/11/10 10:15:52;;;;;;;10.75;5.10;;;9.60;99.90;;;;;;4947769;29;20106;-76
2023/11/10 10:18:27;;;;;;;11.65;5.45;;;9.70;99.90;;;;;;4944901;28;20067;-76
2023/11/10 10:20:59;;;;;;;10.73;5.65;;;9.60;99.90;;;;;;4917949;29;20569;-75
2023/11/10 10:23:28;;;;;;;;;;;9.60;99.90;;;;;;4939551;28;20063;-76
2023/11/10 10:26:00;;;;;;;13.27;6.55;;;9.60;99.90;;;;;;4936791;28;19926;-76
2023/11/10 10:28:28;;;;;;;11.38;6.25;;;9.60;99.90;;;;;;4928697;29;20055;-76
2023/11/10 10:30:59;;;;;;;11.05;5.63;;;9.50;99.90;;;;;;4931748;29;20142;-76
2023/11/10 10:33:27;;;;;;;14.00;5.93;;;9.50;99.90;;;;;;4913255;28;20060;-76
2023/11/10 10:35:56;;;;;;;12.60;5.57;;;9.50;99.90;;;;;;4911104;28;20443;-76
2023/11/10 10:38:27;;;;;;;13.38;6.40;;;9.50;99.90;;;;;;4914839;28;20146;-78
2023/11/10 10:40:58;;;;;;;14.63;6.15;;;9.50;99.90;;;;;;4902441;28;20057;-78
2023/11/10 10:43:28;;;;;;;11.32;5.35;;;9.40;99.90;;;;;;4921831;29;20051;-78
2023/11/10 10:46:03;;;;;;;9.43;4.63;;;9.50;99.90;;;;;;4920419;28;20695;-78
2023/11/10 10:48:32;;;;;;;11.00;5.18;;;9.50;99.90;;;;;;4951300;28;20066;-76
2023/11/10 10:51:05;;;;;;;13.40;5.55;;;9.50;99.90;;;;;;4902257;29;20074;-76
2023/11/10 10:53:35;;;;;;;14.40;6.05;;;9.50;99.90;;;;;;4919679;29;20089;-77
2023/11/10 10:56:11;;;;;;;14.30;6.05;;;9.50;99.90;;;;;;4926644;28;20062;-75
2023/11/10 10:58:42;;;;;;;15.13;6.53;;;9.50;99.90;;;;;;4916945;29;20706;-76
2023/11/10 11:01:16;;;;;;;12.70;5.85;;;9.50;99.90;;;;;;4934354;28;20106;-76
2023/11/10 11:03:57;;;;;;;13.55;5.65;;;9.40;99.90;;;;;;4920844;28;20059;-76
2023/11/10 11:06:42;;;;;;;13.88;5.95;;;9.40;99.90;;;;;;4931153;28;20707;-76
2023/11/10 11:09:32;;;;;;;14.13;6.65;;;9.40;99.90;;;;;;4912448;28;20165;-76
2023/11/10 11:12:29;;;;;;;15.93;6.97;;;9.50;99.90;;;;;;4904408;28;20718;-75
2023/11/10 11:15:17;;;;;;;19.10;7.18;;;9.50;99.90;;;;;;4882275;29;20187;-76
2023/11/10 11:18:15;;;;;;;17.23;7.15;;;9.50;99.90;;;;;;4923442;29;20506;-77
2023/11/10 11:20:48;;;;;;;15.52;6.65;;;9.60;99.90;;;;;;4908950;29;20685;-75
2023/11/10 11:23:21;;;;;;;12.98;5.72;;;9.60;99.90;;;;;;4902177;28;20059;-77
2023/11/10 11:25:58;;;;;;;14.90;6.78;;;9.70;99.90;;;;;;4926867;29;20055;-76
2023/11/10 11:28:28;;;;;;;15.18;6.28;;;9.70;99.90;;;;;;4940970;29;20423;-76
2023/11/10 11:31:08;;;;;;;9.27;4.68;;;9.80;99.90;;;;;;4924561;28;20142;-76
2023/11/10 11:33:48;;;;;;;10.18;4.88;;;9.80;99.90;;;;;;4924892;29;20526;-75
2023/11/10 11:36:18;;;;;;;11.00;4.95;;;9.90;99.90;;;;;;4930243;28;20518;-75
2023/11/10 11:38:48;;;;;;;12.57;5.03;;;9.80;99.90;;;;;;4930784;29;20058;-76
2023/11/10 11:41:16;;;;;;;10.05;4.75;;;9.70;99.90;;;;;;4913429;29;20055;-76
2023/11/10 11:43:50;;;;;;;9.55;4.38;;;9.80;99.90;;;;;;4903834;29;20507;-76
2023/11/10 11:46:19;;;;;;;11.70;4.15;;;9.70;99.90;;;;;;4900322;28;20412;-76
2023/11/10 11:48:48;;;;;;;11.68;5.50;;;9.70;99.90;;;;;;4901528;28;20058;-77
2023/11/10 11:51:17;;;;;;;13.75;4.22;;;9.70;99.90;;;;;;4916000;28;20162;-76
2023/11/10 11:53:50;;;;;;;12.30;5.47;;;9.80;99.90;;;;;;4937407;28;20051;-76
2023/11/10 11:56:20;;;;;;;13.70;6.00;;;9.80;99.90;;;;;;4927720;28;20053;-75
2023/11/10 11:58:49;;;;;;;13.27;6.65;;;9.90;99.90;;;;;;4901243;28;20051;-74
2023/11/10 12:01:18;;;;;;;14.40;6.57;;;9.80;99.90;;;;;;4899848;28;22123;-75
2023/11/10 12:03:52;;;;;;;14.40;6.13;;;9.80;99.90;;;;;;4897757;28;22285;-76
2023/11/10 12:06:26;;;;;;;12.52;5.88;;;9.80;99.90;;;;;;4924705;28;20055;-76
2023/11/10 12:08:58;;;;;;;16.17;7.25;;;9.90;99.90;;;;;;4927113;28;20059;-80
2023/11/10 12:11:27;;;;;;;11.55;5.50;;;9.80;99.90;;;;;;4909787;28;20469;-79
2023/11/10 12:13:56;;;;;;;12.82;5.38;;;10.00;99.90;;;;;;4908819;28;20050;-80
2023/11/10 12:16:28;;;;;;;11.18;5.43;;;9.90;99.90;;;;;;4935064;28;22196;-79
2023/11/10 12:19:04;;;;;;;12.27;5.50;;;10.10;99.90;;;;;;4918949;28;20090;-80
2023/11/10 12:21:34;;;;;;;10.90;5.00;;;10.10;99.90;;;;;;4936036;28;20058;-82
2023/11/10 12:24:05;;;;;;;10.27;4.93;;;10.20;99.90;;;;;;4939780;28;20047;-80
2023/11/10 12:26:36;;;;;;;14.02;5.28;;;10.30;99.90;;;;;;4919450;28;20082;-78
2023/11/10 12:29:10;;;;;;;9.00;5.03;;;10.10;99.90;;;;;;4932652;28;20078;-80
2023/11/10 12:31:39;;;;;;;13.02;5.07;;;10.20;99.90;;;;;;4949537;28;20150;-79
2023/11/10 12:34:09;;;;;;;12.95;4.97;;;10.10;99.90;;;;;;4939032;28;20074;-81
2023/11/10 12:36:40;;;;;;;12.75;5.25;;;10.20;99.90;;;;;;4918581;29;20043;-79
2023/11/10 12:39:17;;;;;;;9.35;4.35;;;10.30;99.90;;;;;;4921731;28;20051;-81
2023/11/10 12:41:46;;;;;;;10.55;4.50;;;10.20;99.90;;;;;;4938463;28;20217;-79
2023/11/10 12:44:15;;;;;;;9.25;3.90;;;10.40;99.90;;;;;;4933926;28;20410;-80
2023/11/10 12:46:55;;;;;;;9.50;4.60;;;11.20;99.90;;;;;;4922971;28;20075;-80
2023/11/10 12:49:29;;;;;;;10.32;4.03;;;10.20;99.90;;;;;;4930460;28;20059;-78
2023/11/10 12:52:00;;;;;;;9.93;4.47;;;10.10;99.90;;;;;;4906512;28;21125;-80
2023/11/10 12:54:33;;;;;;;12.27;4.15;;;10.20;99.90;;;;;;4910158;28;20086;-79
2023/11/10 12:57:02;;;;;;;8.77;4.00;;;10.00;99.90;;;;;;4955902;28;20024;-78
2023/11/10 12:59:31;;;;;;;7.93;3.28;;;10.50;99.90;;;;;;4934990;28;20102;-78
2023/11/10 13:02:01;;;;;;;7.97;3.78;;;10.00;99.90;;;;;;4925708;28;20055;-79
2023/11/10 13:04:31;;;;;;;8.27;3.17;;;10.00;99.90;;;;;;4928773;28;20042;-78